sensor_id;sensor_type;location;lat;lon;timestamp;pressure;altitude;pressure_sealevel;temperature;humidity
59877;BME280;45749;51.140;17.184;2023-05-16T00:02:06;99406.00;;;11.58;89.25
59877;BME280;45749;51.140;17.184;2023-05-16T00:04:32;99396.00;;;11.52;89.45
59877;BME280;45749;51.140;17.184;2023-05-16T00:06:57;99405.31;;;11.56;89.36
59877;BME280;45749;51.140;17.184;2023-05-16T00:09:23;99405.59;;;11.53;89.35
59877;BME280;45749;51.140;17.184;2023-05-16T00:11:48;99409.88;;;11.54;89.51
59877;BME280;45749;51.140;17.184;2023-05-16T00:14:14;99402.09;;;11.53;89.31
59877;BME280;45749;51.140;17.184;2023-05-16T00:16:39;99410.16;;;11.51;89.33
59877;BME280;45749;51.140;17.184;2023-05-16T00:19:05;99399.75;;;11.49;89.59
59877;BME280;45749;51.140;17.184;2023-05-16T00:21:32;99412.69;;;11.53;89.57
59877;BME280;45749;51.140;17.184;2023-05-16T00:23:57;99411.00;;;11.51;89.73
59877;BME280;45749;51.140;17.184;2023-05-16T00:26:23;99412.25;;;11.47;89.82
59877;BME280;45749;51.140;17.184;2023-05-16T00:28:48;99412.25;;;11.47;89.24
59877;BME280;45749;51.140;17.184;2023-05-16T00:31:13;99408.06;;;11.45;90.09
59877;BME280;45749;51.140;17.184;2023-05-16T00:33:38;99414.88;;;11.47;90.05
59877;BME280;45749;51.140;17.184;2023-05-16T00:36:04;99414.06;;;11.47;90.01
59877;BME280;45749;51.140;17.184;2023-05-16T00:38:29;99416.69;;;11.47;90.30
59877;BME280;45749;51.140;17.184;2023-05-16T00:40:55;99421.88;;;11.48;90.04
59877;BME280;45749;51.140;17.184;2023-05-16T00:43:20;99413.22;;;11.46;90.02
59877;BME280;45749;51.140;17.184;2023-05-16T00:45:45;99420.31;;;11.46;90.06
59877;BME280;45749;51.140;17.184;2023-05-16T00:48:13;99419.34;;;11.47;89.99
59877;BME280;45749;51.140;17.184;2023-05-16T00:50:39;99421.44;;;11.43;89.87
59877;BME280;45749;51.140;17.184;2023-05-16T00:53:04;99418.34;;;11.38;89.94
59877;BME280;45749;51.140;17.184;2023-05-16T00:55:29;99424.06;;;11.34;90.19
59877;BME280;45749;51.140;17.184;2023-05-16T00:57:56;99426.84;;;11.32;90.34
59877;BME280;45749;51.140;17.184;2023-05-16T01:00:23;99420.88;;;11.30;90.41
59877;BME280;45749;51.140;17.184;2023-05-16T01:02:48;99426.97;;;11.31;90.49
59877;BME280;45749;51.140;17.184;2023-05-16T01:05:16;99424.22;;;11.32;90.47
59877;BME280;45749;51.140;17.184;2023-05-16T01:07:41;99419.75;;;11.33;90.24
59877;BME280;45749;51.140;17.184;2023-05-16T01:10:07;99419.75;;;11.33;90.23
59877;BME280;45749;51.140;17.184;2023-05-16T01:12:36;99432.00;;;11.34;90.45
59877;BME280;45749;51.140;17.184;2023-05-16T01:15:18;99430.34;;;11.33;90.48
59877;BME280;45749;51.140;17.184;2023-05-16T01:20:53;99425.59;;;11.26;90.49
59877;BME280;45749;51.140;17.184;2023-05-16T01:26:14;99432.25;;;11.21;90.66
59877;BME280;45749;51.140;17.184;2023-05-16T01:28:40;99432.13;;;11.22;90.65
59877;BME280;45749;51.140;17.184;2023-05-16T01:31:08;99440.72;;;11.24;90.40
59877;BME280;45749;51.140;17.184;2023-05-16T01:33:33;99437.69;;;11.19;90.41
59877;BME280;45749;51.140;17.184;2023-05-16T01:38:45;99443.78;;;11.10;90.26
59877;BME280;45749;51.140;17.184;2023-05-16T01:41:19;99453.22;;;11.03;90.16
59877;BME280;45749;51.140;17.184;2023-05-16T01:43:48;99458.06;;;10.98;90.15
59877;BME280;45749;51.140;17.184;2023-05-16T01:46:23;99454.84;;;10.94;90.66
59877;BME280;45749;51.140;17.184;2023-05-16T01:48:58;99454.13;;;10.92;90.89
59877;BME280;45749;51.140;17.184;2023-05-16T01:51:28;99459.41;;;10.92;90.83
59877;BME280;45749;51.140;17.184;2023-05-16T01:53:59;99461.22;;;10.92;90.88
59877;BME280;45749;51.140;17.184;2023-05-16T01:56:27;99463.03;;;10.91;90.85
59877;BME280;45749;51.140;17.184;2023-05-16T01:58:54;99462.47;;;10.88;91.13
59877;BME280;45749;51.140;17.184;2023-05-16T02:01:20;99465.81;;;10.90;90.86
59877;BME280;45749;51.140;17.184;2023-05-16T02:03:45;99461.63;;;10.87;91.09
59877;BME280;45749;51.140;17.184;2023-05-16T02:06:11;99457.19;;;10.88;91.05
59877;BME280;45749;51.140;17.184;2023-05-16T02:08:36;99464.41;;;10.86;91.22
59877;BME280;45749;51.140;17.184;2023-05-16T02:11:01;99468.00;;;10.85;91.22
59877;BME280;45749;51.140;17.184;2023-05-16T02:13:27;99459.13;;;10.76;91.22
59877;BME280;45749;51.140;17.184;2023-05-16T02:15:52;99463.00;;;10.82;91.50
59877;BME280;45749;51.140;17.184;2023-05-16T02:18:17;99483.84;;;10.85;91.43
59877;BME280;45749;51.140;17.184;2023-05-16T02:21:08;99478.72;;;10.83;91.75
59877;BME280;45749;51.140;17.184;2023-05-16T02:23:33;99482.31;;;10.82;91.47
59877;BME280;45749;51.140;17.184;2023-05-16T02:25:58;99476.19;;;10.82;91.51
59877;BME280;45749;51.140;17.184;2023-05-16T02:28:24;99476.34;;;10.80;91.52
59877;BME280;45749;51.140;17.184;2023-05-16T02:30:56;99471.34;;;10.77;91.83
59877;BME280;45749;51.140;17.184;2023-05-16T02:33:22;99467.97;;;10.75;91.47
59877;BME280;45749;51.140;17.184;2023-05-16T02:35:47;99472.44;;;10.74;91.89
59877;BME280;45749;51.140;17.184;2023-05-16T02:38:12;99474.94;;;10.76;91.77
59877;BME280;45749;51.140;17.184;2023-05-16T02:40:41;99469.94;;;10.73;91.70
59877;BME280;45749;51.140;17.184;2023-05-16T02:43:07;99477.28;;;10.79;92.06
59877;BME280;45749;51.140;17.184;2023-05-16T02:45:32;99478.00;;;10.81;91.72
59877;BME280;45749;51.140;17.184;2023-05-16T02:47:57;99473.28;;;10.85;91.67
59877;BME280;45749;51.140;17.184;2023-05-16T02:50:23;99484.00;;;10.83;91.35
59877;BME280;45749;51.140;17.184;2023-05-16T02:52:48;99484.13;;;10.82;91.56
59877;BME280;45749;51.140;17.184;2023-05-16T02:55:13;99478.84;;;10.82;91.45
59877;BME280;45749;51.140;17.184;2023-05-16T02:57:39;99482.72;;;10.77;91.31
59877;BME280;45749;51.140;17.184;2023-05-16T03:00:04;99470.31;;;10.68;91.22
59877;BME280;45749;51.140;17.184;2023-05-16T03:02:30;99479.88;;;10.69;91.35
59877;BME280;45749;51.140;17.184;2023-05-16T03:04:55;99483.25;;;10.71;91.28
59877;BME280;45749;51.140;17.184;2023-05-16T03:07:20;99479.06;;;10.69;91.42
59877;BME280;45749;51.140;17.184;2023-05-16T03:09:46;99485.16;;;10.69;91.44
59877;BME280;45749;51.140;17.184;2023-05-16T03:12:11;99484.59;;;10.66;91.23
59877;BME280;45749;51.140;17.184;2023-05-16T03:14:36;99469.69;;;10.55;91.18
59877;BME280;45749;51.140;17.184;2023-05-16T03:17:02;99490.44;;;10.60;91.24
59877;BME280;45749;51.140;17.184;2023-05-16T03:19:27;99490.53;;;10.58;91.13
59877;BME280;45749;51.140;17.184;2023-05-16T03:21:53;99491.94;;;10.62;91.16
59877;BME280;45749;51.140;17.184;2023-05-16T03:24:18;99497.22;;;10.62;91.19
59877;BME280;45749;51.140;17.184;2023-05-16T03:26:45;99500.00;;;10.61;91.00
59877;BME280;45749;51.140;17.184;2023-05-16T03:29:10;99491.53;;;10.57;91.11
59877;BME280;45749;51.140;17.184;2023-05-16T03:31:36;99472.81;;;10.39;91.37
59877;BME280;45749;51.140;17.184;2023-05-16T03:34:01;99495.09;;;10.46;91.43
59877;BME280;45749;51.140;17.184;2023-05-16T03:36:26;99500.72;;;10.42;91.22
59877;BME280;45749;51.140;17.184;2023-05-16T03:38:52;99494.88;;;10.38;91.34
59877;BME280;45749;51.140;17.184;2023-05-16T03:41:18;99511.53;;;10.39;91.45
59877;BME280;45749;51.140;17.184;2023-05-16T03:43:43;99509.31;;;10.34;91.49
59877;BME280;45749;51.140;17.184;2023-05-16T03:46:08;99514.19;;;10.39;91.39
59877;BME280;45749;51.140;17.184;2023-05-16T03:48:34;99516.13;;;10.37;91.24
59877;BME280;45749;51.140;17.184;2023-05-16T03:50:59;99521.25;;;10.38;91.61
59877;BME280;45749;51.140;17.184;2023-05-16T03:53:24;99518.22;;;10.43;91.40
59877;BME280;45749;51.140;17.184;2023-05-16T03:55:50;99518.94;;;10.45;91.64
59877;BME280;45749;51.140;17.184;2023-05-16T03:58:15;99526.44;;;10.49;91.63
59877;BME280;45749;51.140;17.184;2023-05-16T04:00:41;99521.16;;;10.49;91.40
59877;BME280;45749;51.140;17.184;2023-05-16T04:03:06;99535.91;;;10.52;91.52
59877;BME280;45749;51.140;17.184;2023-05-16T04:05:32;99543.81;;;10.52;91.75
59877;BME280;45749;51.140;17.184;2023-05-16T04:07:58;99553.44;;;10.53;91.57
59877;BME280;45749;51.140;17.184;2023-05-16T04:10:23;99558.56;;;10.54;91.93
59877;BME280;45749;51.140;17.184;2023-05-16T04:12:48;99566.22;;;10.57;92.14
59877;BME280;45749;51.140;17.184;2023-05-16T04:15:14;99568.72;;;10.59;92.08
59877;BME280;45749;51.140;17.184;2023-05-16T04:17:39;99579.84;;;10.63;92.33
59877;BME280;45749;51.140;17.184;2023-05-16T04:20:05;99577.09;;;10.64;92.26
59877;BME280;45749;51.140;17.184;2023-05-16T04:22:31;99581.28;;;10.67;92.61
59877;BME280;45749;51.140;17.184;2023-05-16T04:24:56;99587.25;;;10.69;92.23
59877;BME280;45749;51.140;17.184;2023-05-16T04:27:22;99595.88;;;10.71;92.69
59877;BME280;45749;51.140;17.184;2023-05-16T04:29:47;99598.63;;;10.69;92.76
59877;BME280;45749;51.140;17.184;2023-05-16T04:32:13;99607.16;;;10.73;92.71
59877;BME280;45749;51.140;17.184;2023-05-16T04:34:39;99604.63;;;10.71;93.21
59877;BME280;45749;51.140;17.184;2023-05-16T04:37:05;99598.38;;;10.72;93.40
59877;BME280;45749;51.140;17.184;2023-05-16T04:39:31;99594.53;;;10.76;93.78
59877;BME280;45749;51.140;17.184;2023-05-16T04:41:57;99583.97;;;10.76;94.15
59877;BME280;45749;51.140;17.184;2023-05-16T04:44:24;99573.41;;;10.76;94.62
59877;BME280;45749;51.140;17.184;2023-05-16T04:46:50;99552.31;;;10.76;94.81
59877;BME280;45749;51.140;17.184;2023-05-16T04:49:16;99548.28;;;10.82;95.25
59877;BME280;45749;51.140;17.184;2023-05-16T04:51:42;99555.81;;;10.87;95.40
59877;BME280;45749;51.140;17.184;2023-05-16T04:54:07;99564.06;;;10.93;95.53
59877;BME280;45749;51.140;17.184;2023-05-16T04:56:33;99570.00;;;10.95;95.83
59877;BME280;45749;51.140;17.184;2023-05-16T04:58:58;99575.03;;;10.98;96.17
59877;BME280;45749;51.140;17.184;2023-05-16T05:01:23;99566.16;;;10.99;96.00
59877;BME280;45749;51.140;17.184;2023-05-16T05:03:48;99581.78;;;11.12;96.07
59877;BME280;45749;51.140;17.184;2023-05-16T05:06:14;99590.28;;;11.16;96.29
59877;BME280;45749;51.140;17.184;2023-05-16T05:08:40;99601.78;;;11.15;96.42
59877;BME280;45749;51.140;17.184;2023-05-16T05:11:05;99617.94;;;11.21;96.56
59877;BME280;45749;51.140;17.184;2023-05-16T05:13:31;99622.13;;;11.24;96.27
59877;BME280;45749;51.140;17.184;2023-05-16T05:15:56;99630.59;;;11.27;96.21
59877;BME280;45749;51.140;17.184;2023-05-16T05:18:21;99626.31;;;11.26;95.90
59877;BME280;45749;51.140;17.184;2023-05-16T05:20:47;99641.09;;;11.39;96.34
59877;BME280;45749;51.140;17.184;2023-05-16T05:23:12;99642.50;;;11.43;96.70
59877;BME280;45749;51.140;17.184;2023-05-16T05:25:38;99650.00;;;11.47;96.46
59877;BME280;45749;51.140;17.184;2023-05-16T05:28:03;99650.56;;;11.51;96.81
59877;BME280;45749;51.140;17.184;2023-05-16T05:30:29;99651.16;;;11.55;96.68
59877;BME280;45749;51.140;17.184;2023-05-16T05:32:54;99659.53;;;11.60;96.73
59877;BME280;45749;51.140;17.184;2023-05-16T05:35:20;99662.47;;;11.66;96.67
59877;BME280;45749;51.140;17.184;2023-05-16T05:37:45;99664.69;;;11.71;96.94
59877;BME280;45749;51.140;17.184;2023-05-16T05:40:11;99670.69;;;11.73;96.93
59877;BME280;45749;51.140;17.184;2023-05-16T05:42:36;99653.16;;;11.72;97.06
59877;BME280;45749;51.140;17.184;2023-05-16T05:45:02;99671.47;;;11.85;96.84
59877;BME280;45749;51.140;17.184;2023-05-16T05:47:28;99662.41;;;11.87;96.41
59877;BME280;45749;51.140;17.184;2023-05-16T05:49:53;99675.78;;;11.95;96.71
59877;BME280;45749;51.140;17.184;2023-05-16T05:52:19;99664.13;;;11.98;96.70
59877;BME280;45749;51.140;17.184;2023-05-16T05:54:44;99659.94;;;12.05;96.40
59877;BME280;45749;51.140;17.184;2023-05-16T05:57:10;99659.69;;;12.08;96.08
59877;BME280;45749;51.140;17.184;2023-05-16T05:59:35;99659.41;;;12.11;96.64
59877;BME280;45749;51.140;17.184;2023-05-16T06:02:00;99657.16;;;12.16;96.55
59877;BME280;45749;51.140;17.184;2023-05-16T06:04:26;99659.41;;;12.21;96.50
59877;BME280;45749;51.140;17.184;2023-05-16T06:06:51;99656.34;;;12.26;96.85
59877;BME280;45749;51.140;17.184;2023-05-16T06:09:17;99663.03;;;12.30;96.64
59877;BME280;45749;51.140;17.184;2023-05-16T06:11:42;99657.44;;;12.33;96.94
59877;BME280;45749;51.140;17.184;2023-05-16T06:14:10;99653.53;;;12.37;97.32
59877;BME280;45749;51.140;17.184;2023-05-16T06:16:35;99664.28;;;12.45;96.95
59877;BME280;45749;51.140;17.184;2023-05-16T06:19:00;99661.09;;;12.51;96.66
59877;BME280;45749;51.140;17.184;2023-05-16T06:21:26;99666.50;;;12.59;97.56
59877;BME280;45749;51.140;17.184;2023-05-16T06:23:51;99662.47;;;12.65;96.87
59877;BME280;45749;51.140;17.184;2023-05-16T06:26:17;99669.13;;;12.69;96.80
59877;BME280;45749;51.140;17.184;2023-05-16T06:28:42;99672.75;;;12.78;96.98
59877;BME280;45749;51.140;17.184;2023-05-16T06:31:07;99672.34;;;12.82;96.35
59877;BME280;45749;51.140;17.184;2023-05-16T06:33:33;99674.56;;;12.87;97.02
59877;BME280;45749;51.140;17.184;2023-05-16T06:35:59;99672.31;;;12.92;97.26
59877;BME280;45749;51.140;17.184;2023-05-16T06:38:24;99678.72;;;12.99;96.82
59877;BME280;45749;51.140;17.184;2023-05-16T06:40:49;99680.50;;;13.08;97.19
59877;BME280;45749;51.140;17.184;2023-05-16T06:43:15;99683.28;;;13.17;97.36
59877;BME280;45749;51.140;17.184;2023-05-16T06:45:40;99675.19;;;13.18;97.24
59877;BME280;45749;51.140;17.184;2023-05-16T06:48:06;99686.50;;;13.30;96.94
59877;BME280;45749;51.140;17.184;2023-05-16T06:50:32;99687.69;;;13.35;96.62
59877;BME280;45749;51.140;17.184;2023-05-16T06:52:59;99688.13;;;13.41;96.74
59877;BME280;45749;51.140;17.184;2023-05-16T06:55:24;99700.63;;;13.48;97.08
59877;BME280;45749;51.140;17.184;2023-05-16T06:57:50;99702.59;;;13.56;97.13
59877;BME280;45749;51.140;17.184;2023-05-16T07:00:15;99701.44;;;13.58;96.63
59877;BME280;45749;51.140;17.184;2023-05-16T07:02:41;99707.16;;;13.64;96.95
59877;BME280;45749;51.140;17.184;2023-05-16T07:05:06;99707.69;;;13.67;97.11
59877;BME280;45749;51.140;17.184;2023-05-16T07:07:32;99693.16;;;13.71;96.85
59877;BME280;45749;51.140;17.184;2023-05-16T07:09:57;99702.88;;;13.80;96.73
59877;BME280;45749;51.140;17.184;2023-05-16T07:12:23;99703.94;;;13.88;96.87
59877;BME280;45749;51.140;17.184;2023-05-16T07:14:48;99703.22;;;13.95;97.38
59877;BME280;45749;51.140;17.184;2023-05-16T07:17:13;99697.19;;;14.03;97.30
59877;BME280;45749;51.140;17.184;2023-05-16T07:19:39;99691.56;;;14.06;96.41
59877;BME280;45749;51.140;17.184;2023-05-16T07:22:04;99694.59;;;14.11;96.26
59877;BME280;45749;51.140;17.184;2023-05-16T07:24:30;99681.19;;;14.13;96.26
59877;BME280;45749;51.140;17.184;2023-05-16T07:26:55;99681.28;;;14.21;96.39
59877;BME280;45749;51.140;17.184;2023-05-16T07:29:21;99678.03;;;14.27;95.76
59877;BME280;45749;51.140;17.184;2023-05-16T07:31:46;99681.06;;;14.32;96.06
59877;BME280;45749;51.140;17.184;2023-05-16T07:34:11;99670.97;;;14.36;96.39
59877;BME280;45749;51.140;17.184;2023-05-16T07:36:37;99684.19;;;14.45;96.08
59877;BME280;45749;51.140;17.184;2023-05-16T07:39:03;99683.31;;;14.54;96.26
59877;BME280;45749;51.140;17.184;2023-05-16T07:41:28;99691.19;;;14.64;96.34
59877;BME280;45749;51.140;17.184;2023-05-16T07:43:54;99692.06;;;14.73;95.85
59877;BME280;45749;51.140;17.184;2023-05-16T07:46:19;99689.63;;;14.80;95.40
59877;BME280;45749;51.140;17.184;2023-05-16T07:48:45;99687.06;;;14.88;95.55
59877;BME280;45749;51.140;17.184;2023-05-16T07:51:10;99684.75;;;14.93;94.84
59877;BME280;45749;51.140;17.184;2023-05-16T07:53:36;99691.97;;;15.00;94.43
59877;BME280;45749;51.140;17.184;2023-05-16T07:56:01;99691.63;;;15.04;94.20
59877;BME280;45749;51.140;17.184;2023-05-16T07:58:26;99694.06;;;15.15;94.88
59877;BME280;45749;51.140;17.184;2023-05-16T08:00:52;99701.09;;;15.24;94.07
59877;BME280;45749;51.140;17.184;2023-05-16T08:03:17;99699.47;;;15.31;94.00
59877;BME280;45749;51.140;17.184;2023-05-16T08:05:42;99706.34;;;15.42;93.76
59877;BME280;45749;51.140;17.184;2023-05-16T08:08:08;99713.50;;;15.49;92.77
59877;BME280;45749;51.140;17.184;2023-05-16T08:10:33;99711.22;;;15.55;92.26
59877;BME280;45749;51.140;17.184;2023-05-16T08:12:58;99710.91;;;15.58;92.95
59877;BME280;45749;51.140;17.184;2023-05-16T08:15:26;99713.09;;;15.62;91.87
59877;BME280;45749;51.140;17.184;2023-05-16T08:17:55;99723.66;;;15.72;91.95
59877;BME280;45749;51.140;17.184;2023-05-16T08:20:21;99726.19;;;15.82;91.20
59877;BME280;45749;51.140;17.184;2023-05-16T08:22:46;99730.03;;;15.87;90.98
59877;BME280;45749;51.140;17.184;2023-05-16T08:25:12;99718.75;;;15.93;90.10
59877;BME280;45749;51.140;17.184;2023-05-16T08:27:37;99727.06;;;15.99;89.91
59877;BME280;45749;51.140;17.184;2023-05-16T08:30:03;99741.09;;;16.09;91.19
59877;BME280;45749;51.140;17.184;2023-05-16T08:32:28;99738.09;;;16.12;89.46
59877;BME280;45749;51.140;17.184;2023-05-16T08:34:54;99741.97;;;16.17;90.37
59877;BME280;45749;51.140;17.184;2023-05-16T08:37:19;99738.66;;;16.24;90.26
59877;BME280;45749;51.140;17.184;2023-05-16T08:39:45;99742.50;;;16.37;89.42
59877;BME280;45749;51.140;17.184;2023-05-16T08:42:10;99742.38;;;16.47;90.56
59877;BME280;45749;51.140;17.184;2023-05-16T08:44:36;99740.88;;;16.53;89.36
59877;BME280;45749;51.140;17.184;2023-05-16T08:47:10;99753.38;;;16.60;88.16
59877;BME280;45749;51.140;17.184;2023-05-16T08:49:39;99754.38;;;16.68;89.08
59877;BME280;45749;51.140;17.184;2023-05-16T08:52:07;99747.28;;;16.76;88.08
59877;BME280;45749;51.140;17.184;2023-05-16T08:54:32;99754.44;;;16.76;88.23
59877;BME280;45749;51.140;17.184;2023-05-16T08:57:00;99760.06;;;16.73;87.08
59877;BME280;45749;51.140;17.184;2023-05-16T08:59:26;99760.41;;;16.78;88.32
59877;BME280;45749;51.140;17.184;2023-05-16T09:01:51;99761.75;;;16.90;88.27
59877;BME280;45749;51.140;17.184;2023-05-16T09:04:17;99758.44;;;17.04;88.68
59877;BME280;45749;51.140;17.184;2023-05-16T09:06:42;99764.13;;;17.18;88.01
59877;BME280;45749;51.140;17.184;2023-05-16T09:09:07;99765.09;;;17.25;86.72
59877;BME280;45749;51.140;17.184;2023-05-16T09:11:37;99762.94;;;17.28;85.93
59877;BME280;45749;51.140;17.184;2023-05-16T09:14:02;99766.56;;;17.27;85.68
59877;BME280;45749;51.140;17.184;2023-05-16T09:16:29;99780.44;;;17.31;86.03
59877;BME280;45749;51.140;17.184;2023-05-16T09:18:57;99777.59;;;17.32;85.59
59877;BME280;45749;51.140;17.184;2023-05-16T09:21:29;99786.72;;;17.46;86.91
59877;BME280;45749;51.140;17.184;2023-05-16T09:23:56;99783.25;;;17.54;84.27
59877;BME280;45749;51.140;17.184;2023-05-16T09:26:26;99788.72;;;17.52;84.52
59877;BME280;45749;51.140;17.184;2023-05-16T09:28:53;99776.41;;;17.51;84.14
59877;BME280;45749;51.140;17.184;2023-05-16T09:33:46;99784.56;;;17.58;84.48
59877;BME280;45749;51.140;17.184;2023-05-16T09:36:12;99795.53;;;17.71;84.69
59877;BME280;45749;51.140;17.184;2023-05-16T09:38:39;99799.53;;;17.84;85.42
59877;BME280;45749;51.140;17.184;2023-05-16T09:41:05;99809.84;;;17.95;83.82
59877;BME280;45749;51.140;17.184;2023-05-16T09:43:30;99816.00;;;17.95;84.17
59877;BME280;45749;51.140;17.184;2023-05-16T09:45:58;99827.84;;;18.01;83.87
59877;BME280;45749;51.140;17.184;2023-05-16T09:48:24;99823.53;;;17.92;82.70
59877;BME280;45749;51.140;17.184;2023-05-16T09:50:52;99823.88;;;17.97;81.68
59877;BME280;45749;51.140;17.184;2023-05-16T09:53:29;99822.50;;;18.01;82.32
59877;BME280;45749;51.140;17.184;2023-05-16T09:56:05;99823.47;;;18.08;82.84
59877;BME280;45749;51.140;17.184;2023-05-16T09:58:33;99826.91;;;18.25;84.04
59877;BME280;45749;51.140;17.184;2023-05-16T10:01:00;99825.69;;;18.44;83.25
59877;BME280;45749;51.140;17.184;2023-05-16T10:03:26;99830.13;;;18.60;82.31
59877;BME280;45749;51.140;17.184;2023-05-16T10:05:52;99838.25;;;18.66;81.90
59877;BME280;45749;51.140;17.184;2023-05-16T10:08:20;99846.91;;;18.68;80.31
59877;BME280;45749;51.140;17.184;2023-05-16T10:10:49;99840.63;;;18.61;79.92
59877;BME280;45749;51.140;17.184;2023-05-16T10:13:16;99828.91;;;18.62;80.51
59877;BME280;45749;51.140;17.184;2023-05-16T10:15:44;99827.72;;;18.73;80.99
59877;BME280;45749;51.140;17.184;2023-05-16T10:18:10;99821.97;;;18.84;81.50
59877;BME280;45749;51.140;17.184;2023-05-16T10:20:39;99828.59;;;18.96;79.83
59877;BME280;45749;51.140;17.184;2023-05-16T10:23:05;99817.22;;;18.94;79.03
59877;BME280;45749;51.140;17.184;2023-05-16T10:25:35;99804.56;;;18.88;78.48
59877;BME280;45749;51.140;17.184;2023-05-16T10:28:03;99818.13;;;18.87;78.42
59877;BME280;45749;51.140;17.184;2023-05-16T10:30:30;99809.75;;;18.90;78.05
59877;BME280;45749;51.140;17.184;2023-05-16T10:32:55;99818.91;;;18.95;78.05
59877;BME280;45749;51.140;17.184;2023-05-16T10:35:22;99823.34;;;19.03;78.35
59877;BME280;45749;51.140;17.184;2023-05-16T10:37:48;99817.66;;;19.06;77.58
59877;BME280;45749;51.140;17.184;2023-05-16T10:40:15;99820.31;;;19.06;77.32
59877;BME280;45749;51.140;17.184;2023-05-16T10:42:43;99815.13;;;19.05;77.75
59877;BME280;45749;51.140;17.184;2023-05-16T10:45:19;99828.16;;;19.08;75.95
59877;BME280;45749;51.140;17.184;2023-05-16T10:47:54;99823.50;;;19.02;76.22
59877;BME280;45749;51.140;17.184;2023-05-16T10:50:31;99829.84;;;19.09;76.54
59877;BME280;45749;51.140;17.184;2023-05-16T10:55:35;99830.59;;;19.17;76.10
59877;BME280;45749;51.140;17.184;2023-05-16T10:58:02;99828.75;;;19.18;74.90
59877;BME280;45749;51.140;17.184;2023-05-16T11:00:29;99827.63;;;19.12;75.90
59877;BME280;45749;51.140;17.184;2023-05-16T11:03:03;99819.25;;;19.15;76.05
59877;BME280;45749;51.140;17.184;2023-05-16T11:05:29;99808.91;;;19.12;75.74
59877;BME280;45749;51.140;17.184;2023-05-16T11:08:03;99801.53;;;19.14;75.99
59877;BME280;45749;51.140;17.184;2023-05-16T11:10:29;99808.00;;;19.20;75.50
59877;BME280;45749;51.140;17.184;2023-05-16T11:13:01;99811.00;;;19.25;76.42
59877;BME280;45749;51.140;17.184;2023-05-16T11:15:30;99812.75;;;19.33;75.66
59877;BME280;45749;51.140;17.184;2023-05-16T11:18:13;99807.97;;;19.28;75.82
59877;BME280;45749;51.140;17.184;2023-05-16T11:20:40;99800.75;;;19.29;75.76
59877;BME280;45749;51.140;17.184;2023-05-16T11:25:45;99808.84;;;19.20;76.00
59877;BME280;45749;51.140;17.184;2023-05-16T11:28:13;99805.53;;;19.18;75.40
59877;BME280;45749;51.140;17.184;2023-05-16T11:30:47;99810.03;;;19.18;75.19
59877;BME280;45749;51.140;17.184;2023-05-16T11:33:14;99811.59;;;19.12;76.05
59877;BME280;45749;51.140;17.184;2023-05-16T11:35:40;99824.25;;;19.18;76.33
59877;BME280;45749;51.140;17.184;2023-05-16T11:38:11;99818.91;;;19.18;75.98
59877;BME280;45749;51.140;17.184;2023-05-16T11:40:41;99802.19;;;19.16;75.96
59877;BME280;45749;51.140;17.184;2023-05-16T11:43:06;99801.06;;;19.11;75.68
59877;BME280;45749;51.140;17.184;2023-05-16T11:45:32;99806.13;;;19.06;75.87
59877;BME280;45749;51.140;17.184;2023-05-16T11:48:01;99804.44;;;19.05;75.63
59877;BME280;45749;51.140;17.184;2023-05-16T11:50:28;99803.94;;;19.09;75.63
59877;BME280;45749;51.140;17.184;2023-05-16T11:52:53;99808.44;;;19.09;75.88
59877;BME280;45749;51.140;17.184;2023-05-16T11:55:22;99810.47;;;19.07;76.09
59877;BME280;45749;51.140;17.184;2023-05-16T11:57:51;99819.16;;;19.09;75.71
59877;BME280;45749;51.140;17.184;2023-05-16T12:00:20;99819.03;;;19.02;75.27
59877;BME280;45749;51.140;17.184;2023-05-16T12:02:47;99817.22;;;18.94;75.38
59877;BME280;45749;51.140;17.184;2023-05-16T12:05:14;99822.09;;;18.91;75.92
59877;BME280;45749;51.140;17.184;2023-05-16T12:07:45;99826.28;;;18.85;76.03
59877;BME280;45749;51.140;17.184;2023-05-16T12:10:12;99824.84;;;18.83;76.28
59877;BME280;45749;51.140;17.184;2023-05-16T12:12:40;99822.16;;;18.83;75.22
59877;BME280;45749;51.140;17.184;2023-05-16T12:15:07;99821.16;;;18.84;75.70
59877;BME280;45749;51.140;17.184;2023-05-16T12:17:37;99818.66;;;18.82;75.36
59877;BME280;45749;51.140;17.184;2023-05-16T12:20:03;99824.53;;;18.78;75.21
59877;BME280;45749;51.140;17.184;2023-05-16T12:22:38;99818.69;;;18.74;75.23
59877;BME280;45749;51.140;17.184;2023-05-16T12:25:23;99827.84;;;18.71;75.54
59877;BME280;45749;51.140;17.184;2023-05-16T12:27:49;99827.53;;;18.74;75.64
59877;BME280;45749;51.140;17.184;2023-05-16T12:30:16;99825.53;;;18.68;75.42
59877;BME280;45749;51.140;17.184;2023-05-16T12:32:43;99830.13;;;18.60;74.70
59877;BME280;45749;51.140;17.184;2023-05-16T12:35:09;99836.78;;;18.56;74.79
59877;BME280;45749;51.140;17.184;2023-05-16T12:37:36;99840.66;;;18.53;75.05
59877;BME280;45749;51.140;17.184;2023-05-16T12:40:01;99832.34;;;18.48;75.98
59877;BME280;45749;51.140;17.184;2023-05-16T12:42:28;99831.16;;;18.50;75.76
59877;BME280;45749;51.140;17.184;2023-05-16T12:44:55;99838.84;;;18.45;75.49
59877;BME280;45749;51.140;17.184;2023-05-16T12:47:21;99832.38;;;18.40;75.28
59877;BME280;45749;51.140;17.184;2023-05-16T12:49:47;99844.72;;;18.41;76.34
59877;BME280;45749;51.140;17.184;2023-05-16T12:52:19;99843.72;;;18.42;76.79
59877;BME280;45749;51.140;17.184;2023-05-16T12:54:46;99844.06;;;18.39;75.80
59877;BME280;45749;51.140;17.184;2023-05-16T12:57:12;99840.94;;;18.27;75.73
59877;BME280;45749;51.140;17.184;2023-05-16T12:59:37;99851.47;;;18.20;75.59
59877;BME280;45749;51.140;17.184;2023-05-16T13:02:02;99856.81;;;18.20;76.18
59877;BME280;45749;51.140;17.184;2023-05-16T13:04:28;99856.84;;;18.12;75.79